sensor_id;sensor_type;location;lat;lon;timestamp;P1;durP1;ratioP1;P2;durP2;ratioP2
4638;SDS011;2332;38.646;-9.154;2024-03-17T00:01:09;25.60;;;15.23;;
4638;SDS011;2332;38.646;-9.154;2024-03-17T00:03:35;27.53;;;16.03;;
4638;SDS011;2332;38.646;-9.154;2024-03-17T00:06:00;28.97;;;13.40;;
4638;SDS011;2332;38.646;-9.154;2024-03-17T00:08:26;25.63;;;14.20;;
4638;SDS011;2332;38.646;-9.154;2024-03-17T00:10:52;28.53;;;14.60;;
4638;SDS011;2332;38.646;-9.154;2024-03-17T00:13:18;25.37;;;15.10;;
4638;SDS011;2332;38.646;-9.154;2024-03-17T00:15:44;25.90;;;15.07;;
4638;SDS011;2332;38.646;-9.154;2024-03-17T00:18:09;27.63;;;16.13;;
4638;SDS011;2332;38.646;-9.154;2024-03-17T00:20:36;30.07;;;16.30;;
4638;SDS011;2332;38.646;-9.154;2024-03-17T00:23:01;22.90;;;16.07;;
4638;SDS011;2332;38.646;-9.154;2024-03-17T00:25:27;25.93;;;16.70;;
4638;SDS011;2332;38.646;-9.154;2024-03-17T00:27:52;22.20;;;14.70;;
4638;SDS011;2332;38.646;-9.154;2024-03-17T00:30:20;27.83;;;14.73;;
4638;SDS011;2332;38.646;-9.154;2024-03-17T00:32:46;30.10;;;17.13;;
4638;SDS011;2332;38.646;-9.154;2024-03-17T00:35:12;30.37;;;18.10;;
4638;SDS011;2332;38.646;-9.154;2024-03-17T00:37:39;30.87;;;18.73;;
4638;SDS011;2332;38.646;-9.154;2024-03-17T00:40:05;29.40;;;16.43;;
4638;SDS011;2332;38.646;-9.154;2024-03-17T00:42:31;31.00;;;18.33;;
4638;SDS011;2332;38.646;-9.154;2024-03-17T00:44:57;31.27;;;16.67;;
4638;SDS011;2332;38.646;-9.154;2024-03-17T00:47:25;23.00;;;15.20;;
4638;SDS011;2332;38.646;-9.154;2024-03-17T00:49:50;16.70;;;11.47;;
4638;SDS011;2332;38.646;-9.154;2024-03-17T00:52:16;15.23;;;10.37;;
4638;SDS011;2332;38.646;-9.154;2024-03-17T00:54:41;20.47;;;11.00;;
4638;SDS011;2332;38.646;-9.154;2024-03-17T00:57:07;21.93;;;11.10;;
4638;SDS011;2332;38.646;-9.154;2024-03-17T00:59:32;21.97;;;12.27;;
4638;SDS011;2332;38.646;-9.154;2024-03-17T01:01:58;29.17;;;13.93;;
4638;SDS011;2332;38.646;-9.154;2024-03-17T01:04:23;22.43;;;13.10;;
4638;SDS011;2332;38.646;-9.154;2024-03-17T01:06:49;23.23;;;13.57;;
4638;SDS011;2332;38.646;-9.154;2024-03-17T01:09:14;30.20;;;13.57;;
4638;SDS011;2332;38.646;-9.154;2024-03-17T01:11:39;25.60;;;14.03;;
4638;SDS011;2332;38.646;-9.154;2024-03-17T01:14:05;25.63;;;13.70;;
4638;SDS011;2332;38.646;-9.154;2024-03-17T01:16:31;27.90;;;14.53;;
4638;SDS011;2332;38.646;-9.154;2024-03-17T01:18:56;21.60;;;12.57;;
4638;SDS011;2332;38.646;-9.154;2024-03-17T01:21:21;24.63;;;13.90;;
4638;SDS011;2332;38.646;-9.154;2024-03-17T01:23:48;23.80;;;14.07;;
4638;SDS011;2332;38.646;-9.154;2024-03-17T01:26:13;33.20;;;14.57;;
4638;SDS011;2332;38.646;-9.154;2024-03-17T01:28:38;33.83;;;15.33;;
4638;SDS011;2332;38.646;-9.154;2024-03-17T01:31:07;28.73;;;16.10;;
4638;SDS011;2332;38.646;-9.154;2024-03-17T01:33:32;33.53;;;21.07;;
4638;SDS011;2332;38.646;-9.154;2024-03-17T01:35:58;46.90;;;26.77;;
4638;SDS011;2332;38.646;-9.154;2024-03-17T01:38:23;57.23;;;29.50;;
4638;SDS011;2332;38.646;-9.154;2024-03-17T01:40:48;40.70;;;25.57;;
4638;SDS011;2332;38.646;-9.154;2024-03-17T01:43:14;45.10;;;25.47;;
4638;SDS011;2332;38.646;-9.154;2024-03-17T01:45:39;48.97;;;25.27;;
4638;SDS011;2332;38.646;-9.154;2024-03-17T01:48:08;43.50;;;23.33;;
4638;SDS011;2332;38.646;-9.154;2024-03-17T01:50:35;40.47;;;21.60;;
4638;SDS011;2332;38.646;-9.154;2024-03-17T01:53:02;32.27;;;18.97;;
4638;SDS011;2332;38.646;-9.154;2024-03-17T01:55:29;29.10;;;18.30;;
4638;SDS011;2332;38.646;-9.154;2024-03-17T01:57:55;29.17;;;16.03;;
4638;SDS011;2332;38.646;-9.154;2024-03-17T02:00:21;27.90;;;16.30;;
4638;SDS011;2332;38.646;-9.154;2024-03-17T02:02:48;26.50;;;15.33;;
4638;SDS011;2332;38.646;-9.154;2024-03-17T02:05:13;29.53;;;16.33;;
4638;SDS011;2332;38.646;-9.154;2024-03-17T02:07:39;37.63;;;15.27;;
4638;SDS011;2332;38.646;-9.154;2024-03-17T02:10:05;25.13;;;14.20;;
4638;SDS011;2332;38.646;-9.154;2024-03-17T02:12:31;22.47;;;13.07;;
4638;SDS011;2332;38.646;-9.154;2024-03-17T02:14:59;19.30;;;13.07;;
4638;SDS011;2332;38.646;-9.154;2024-03-17T02:17:25;15.87;;;12.50;;
4638;SDS011;2332;38.646;-9.154;2024-03-17T02:19:51;20.77;;;12.23;;
4638;SDS011;2332;38.646;-9.154;2024-03-17T02:22:17;22.13;;;12.07;;
4638;SDS011;2332;38.646;-9.154;2024-03-17T02:24:42;20.33;;;12.03;;
4638;SDS011;2332;38.646;-9.154;2024-03-17T02:27:08;19.40;;;11.50;;
4638;SDS011;2332;38.646;-9.154;2024-03-17T02:29:34;25.80;;;10.80;;
4638;SDS011;2332;38.646;-9.154;2024-03-17T02:32:01;18.37;;;10.73;;
4638;SDS011;2332;38.646;-9.154;2024-03-17T02:34:32;21.23;;;11.03;;
4638;SDS011;2332;38.646;-9.154;2024-03-17T02:36:57;17.37;;;10.20;;
4638;SDS011;2332;38.646;-9.154;2024-03-17T02:39:22;22.90;;;11.43;;
4638;SDS011;2332;38.646;-9.154;2024-03-17T02:42:01;17.90;;;10.60;;
4638;SDS011;2332;38.646;-9.154;2024-03-17T02:44:27;22.43;;;11.73;;
4638;SDS011;2332;38.646;-9.154;2024-03-17T02:46:52;18.67;;;11.23;;
4638;SDS011;2332;38.646;-9.154;2024-03-17T02:49:17;22.30;;;12.27;;
4638;SDS011;2332;38.646;-9.154;2024-03-17T02:51:43;18.60;;;12.07;;
4638;SDS011;2332;38.646;-9.154;2024-03-17T02:54:08;24.07;;;13.27;;
4638;SDS011;2332;38.646;-9.154;2024-03-17T02:56:34;22.63;;;13.93;;
4638;SDS011;2332;38.646;-9.154;2024-03-17T02:58:59;26.20;;;14.93;;
4638;SDS011;2332;38.646;-9.154;2024-03-17T03:01:25;20.63;;;13.17;;
4638;SDS011;2332;38.646;-9.154;2024-03-17T03:03:50;25.33;;;13.93;;
4638;SDS011;2332;38.646;-9.154;2024-03-17T03:06:15;28.50;;;14.00;;
4638;SDS011;2332;38.646;-9.154;2024-03-17T03:08:44;24.47;;;14.03;;
4638;SDS011;2332;38.646;-9.154;2024-03-17T03:11:13;23.30;;;13.93;;
4638;SDS011;2332;38.646;-9.154;2024-03-17T03:13:39;24.77;;;14.37;;
4638;SDS011;2332;38.646;-9.154;2024-03-17T03:16:09;32.27;;;14.93;;
4638;SDS011;2332;38.646;-9.154;2024-03-17T03:18:38;22.23;;;14.83;;
4638;SDS011;2332;38.646;-9.154;2024-03-17T03:21:07;26.60;;;16.10;;
4638;SDS011;2332;38.646;-9.154;2024-03-17T03:23:32;24.70;;;14.13;;
4638;SDS011;2332;38.646;-9.154;2024-03-17T03:25:59;24.80;;;15.30;;
4638;SDS011;2332;38.646;-9.154;2024-03-17T03:28:25;25.40;;;15.33;;
4638;SDS011;2332;38.646;-9.154;2024-03-17T03:30:51;23.50;;;13.27;;
4638;SDS011;2332;38.646;-9.154;2024-03-17T03:33:17;22.13;;;13.70;;
4638;SDS011;2332;38.646;-9.154;2024-03-17T03:35:43;25.00;;;13.13;;
4638;SDS011;2332;38.646;-9.154;2024-03-17T03:38:08;32.80;;;15.87;;
4638;SDS011;2332;38.646;-9.154;2024-03-17T03:40:34;19.80;;;14.10;;
4638;SDS011;2332;38.646;-9.154;2024-03-17T03:42:59;22.10;;;13.87;;
4638;SDS011;2332;38.646;-9.154;2024-03-17T03:45:24;17.80;;;13.40;;
4638;SDS011;2332;38.646;-9.154;2024-03-17T03:47:50;24.83;;;14.10;;
4638;SDS011;2332;38.646;-9.154;2024-03-17T03:50:19;24.10;;;14.00;;
4638;SDS011;2332;38.646;-9.154;2024-03-17T03:52:45;18.23;;;12.67;;
4638;SDS011;2332;38.646;-9.154;2024-03-17T03:55:11;27.10;;;13.90;;
4638;SDS011;2332;38.646;-9.154;2024-03-17T03:57:37;20.80;;;13.37;;
4638;SDS011;2332;38.646;-9.154;2024-03-17T04:00:05;23.40;;;13.37;;
4638;SDS011;2332;38.646;-9.154;2024-03-17T04:02:39;23.33;;;13.87;;
4638;SDS011;2332;38.646;-9.154;2024-03-17T04:05:05;22.30;;;12.60;;
4638;SDS011;2332;38.646;-9.154;2024-03-17T04:07:31;25.10;;;14.00;;
4638;SDS011;2332;38.646;-9.154;2024-03-17T04:09:56;23.47;;;13.30;;
4638;SDS011;2332;38.646;-9.154;2024-03-17T04:12:22;28.33;;;14.00;;
4638;SDS011;2332;38.646;-9.154;2024-03-17T04:14:48;27.40;;;14.40;;
4638;SDS011;2332;38.646;-9.154;2024-03-17T04:17:18;24.57;;;14.20;;
4638;SDS011;2332;38.646;-9.154;2024-03-17T04:19:44;25.03;;;13.73;;
4638;SDS011;2332;38.646;-9.154;2024-03-17T04:22:10;24.80;;;13.50;;
4638;SDS011;2332;38.646;-9.154;2024-03-17T04:24:36;25.83;;;14.13;;
4638;SDS011;2332;38.646;-9.154;2024-03-17T04:27:02;26.20;;;13.80;;
4638;SDS011;2332;38.646;-9.154;2024-03-17T04:29:30;21.40;;;14.53;;
4638;SDS011;2332;38.646;-9.154;2024-03-17T04:31:55;19.70;;;13.90;;
4638;SDS011;2332;38.646;-9.154;2024-03-17T04:34:20;30.97;;;15.80;;
4638;SDS011;2332;38.646;-9.154;2024-03-17T04:36:46;38.20;;;17.27;;
4638;SDS011;2332;38.646;-9.154;2024-03-17T04:39:12;24.13;;;15.70;;
4638;SDS011;2332;38.646;-9.154;2024-03-17T04:41:37;24.83;;;16.60;;
4638;SDS011;2332;38.646;-9.154;2024-03-17T04:44:04;29.93;;;16.07;;
4638;SDS011;2332;38.646;-9.154;2024-03-17T04:46:31;23.90;;;16.03;;
4638;SDS011;2332;38.646;-9.154;2024-03-17T04:48:57;29.30;;;15.90;;
4638;SDS011;2332;38.646;-9.154;2024-03-17T04:51:22;21.00;;;14.80;;
4638;SDS011;2332;38.646;-9.154;2024-03-17T04:53:47;22.33;;;15.53;;
4638;SDS011;2332;38.646;-9.154;2024-03-17T04:56:13;28.83;;;15.40;;
4638;SDS011;2332;38.646;-9.154;2024-03-17T04:58:38;23.87;;;14.97;;
4638;SDS011;2332;38.646;-9.154;2024-03-17T05:01:04;21.67;;;14.27;;
4638;SDS011;2332;38.646;-9.154;2024-03-17T05:03:32;35.47;;;15.87;;
4638;SDS011;2332;38.646;-9.154;2024-03-17T05:05:58;26.67;;;14.30;;
4638;SDS011;2332;38.646;-9.154;2024-03-17T05:08:25;23.20;;;15.27;;
4638;SDS011;2332;38.646;-9.154;2024-03-17T05:10:55;24.10;;;15.70;;
4638;SDS011;2332;38.646;-9.154;2024-03-17T05:13:20;23.53;;;15.63;;
4638;SDS011;2332;38.646;-9.154;2024-03-17T05:15:46;26.10;;;16.17;;
4638;SDS011;2332;38.646;-9.154;2024-03-17T05:18:11;24.17;;;15.70;;
4638;SDS011;2332;38.646;-9.154;2024-03-17T05:20:37;25.67;;;16.10;;
4638;SDS011;2332;38.646;-9.154;2024-03-17T05:23:02;26.20;;;15.47;;
4638;SDS011;2332;38.646;-9.154;2024-03-17T05:25:27;27.63;;;16.30;;
4638;SDS011;2332;38.646;-9.154;2024-03-17T05:27:53;25.73;;;16.00;;
4638;SDS011;2332;38.646;-9.154;2024-03-17T05:30:18;25.33;;;16.10;;
4638;SDS011;2332;38.646;-9.154;2024-03-17T05:32:44;34.20;;;16.20;;
4638;SDS011;2332;38.646;-9.154;2024-03-17T05:35:09;23.13;;;15.60;;
4638;SDS011;2332;38.646;-9.154;2024-03-17T05:37:35;27.60;;;15.33;;
4638;SDS011;2332;38.646;-9.154;2024-03-17T05:40:00;22.37;;;15.27;;
4638;SDS011;2332;38.646;-9.154;2024-03-17T05:42:26;24.17;;;15.40;;
4638;SDS011;2332;38.646;-9.154;2024-03-17T05:44:51;22.93;;;15.63;;
4638;SDS011;2332;38.646;-9.154;2024-03-17T05:47:18;25.53;;;16.67;;
4638;SDS011;2332;38.646;-9.154;2024-03-17T05:49:43;20.10;;;14.80;;
4638;SDS011;2332;38.646;-9.154;2024-03-17T05:52:09;24.70;;;16.73;;
4638;SDS011;2332;38.646;-9.154;2024-03-17T05:54:35;21.73;;;14.50;;
4638;SDS011;2332;38.646;-9.154;2024-03-17T05:57:00;22.60;;;15.47;;
4638;SDS011;2332;38.646;-9.154;2024-03-17T05:59:29;24.37;;;15.07;;
4638;SDS011;2332;38.646;-9.154;2024-03-17T06:01:55;31.43;;;15.80;;
4638;SDS011;2332;38.646;-9.154;2024-03-17T06:04:20;27.30;;;15.90;;
4638;SDS011;2332;38.646;-9.154;2024-03-17T06:06:45;20.93;;;15.40;;
4638;SDS011;2332;38.646;-9.154;2024-03-17T06:09:11;22.23;;;15.77;;
4638;SDS011;2332;38.646;-9.154;2024-03-17T06:11:36;34.57;;;16.87;;
4638;SDS011;2332;38.646;-9.154;2024-03-17T06:14:01;27.53;;;16.70;;
4638;SDS011;2332;38.646;-9.154;2024-03-17T06:16:29;25.60;;;15.30;;
4638;SDS011;2332;38.646;-9.154;2024-03-17T06:18:56;31.60;;;16.40;;
4638;SDS011;2332;38.646;-9.154;2024-03-17T06:21:21;25.67;;;17.20;;
4638;SDS011;2332;38.646;-9.154;2024-03-17T06:23:46;30.40;;;16.60;;
4638;SDS011;2332;38.646;-9.154;2024-03-17T06:26:12;22.10;;;16.40;;
4638;SDS011;2332;38.646;-9.154;2024-03-17T06:28:37;27.80;;;18.20;;
4638;SDS011;2332;38.646;-9.154;2024-03-17T06:31:03;32.53;;;18.27;;
4638;SDS011;2332;38.646;-9.154;2024-03-17T06:33:32;26.90;;;17.33;;
4638;SDS011;2332;38.646;-9.154;2024-03-17T06:35:58;31.63;;;17.00;;
4638;SDS011;2332;38.646;-9.154;2024-03-17T06:38:23;28.83;;;18.13;;
4638;SDS011;2332;38.646;-9.154;2024-03-17T06:40:49;32.87;;;18.10;;
4638;SDS011;2332;38.646;-9.154;2024-03-17T06:43:15;29.23;;;18.90;;
4638;SDS011;2332;38.646;-9.154;2024-03-17T06:45:41;31.80;;;17.33;;
4638;SDS011;2332;38.646;-9.154;2024-03-17T06:48:06;30.60;;;17.10;;
4638;SDS011;2332;38.646;-9.154;2024-03-17T06:50:32;35.10;;;17.77;;
4638;SDS011;2332;38.646;-9.154;2024-03-17T06:52:57;27.17;;;18.13;;
4638;SDS011;2332;38.646;-9.154;2024-03-17T06:55:22;28.17;;;17.37;;
4638;SDS011;2332;38.646;-9.154;2024-03-17T06:57:49;35.90;;;18.37;;
4638;SDS011;2332;38.646;-9.154;2024-03-17T07:00:15;25.60;;;17.70;;
4638;SDS011;2332;38.646;-9.154;2024-03-17T07:02:41;27.77;;;17.33;;
4638;SDS011;2332;38.646;-9.154;2024-03-17T07:05:11;30.73;;;17.97;;
4638;SDS011;2332;38.646;-9.154;2024-03-17T07:07:39;24.83;;;17.50;;
4638;SDS011;2332;38.646;-9.154;2024-03-17T07:10:05;29.40;;;18.20;;
4638;SDS011;2332;38.646;-9.154;2024-03-17T07:12:31;24.83;;;17.00;;
4638;SDS011;2332;38.646;-9.154;2024-03-17T07:14:56;28.60;;;17.20;;
4638;SDS011;2332;38.646;-9.154;2024-03-17T07:17:21;28.43;;;16.00;;
4638;SDS011;2332;38.646;-9.154;2024-03-17T07:19:47;30.47;;;17.40;;
4638;SDS011;2332;38.646;-9.154;2024-03-17T07:22:14;24.43;;;16.57;;
4638;SDS011;2332;38.646;-9.154;2024-03-17T07:24:40;28.87;;;17.43;;
4638;SDS011;2332;38.646;-9.154;2024-03-17T07:27:05;24.83;;;16.40;;
4638;SDS011;2332;38.646;-9.154;2024-03-17T07:29:34;24.40;;;16.60;;
4638;SDS011;2332;38.646;-9.154;2024-03-17T07:32:00;24.67;;;17.10;;
4638;SDS011;2332;38.646;-9.154;2024-03-17T07:34:25;23.90;;;17.43;;
4638;SDS011;2332;38.646;-9.154;2024-03-17T07:36:50;25.67;;;16.50;;
4638;SDS011;2332;38.646;-9.154;2024-03-17T07:39:16;28.70;;;16.03;;
4638;SDS011;2332;38.646;-9.154;2024-03-17T07:41:41;23.63;;;15.80;;
4638;SDS011;2332;38.646;-9.154;2024-03-17T07:44:06;25.07;;;15.43;;
4638;SDS011;2332;38.646;-9.154;2024-03-17T07:46:32;27.60;;;16.00;;
4638;SDS011;2332;38.646;-9.154;2024-03-17T07:48:57;21.17;;;15.77;;
4638;SDS011;2332;38.646;-9.154;2024-03-17T07:51:23;24.10;;;16.70;;
4638;SDS011;2332;38.646;-9.154;2024-03-17T07:53:48;26.80;;;15.87;;
4638;SDS011;2332;38.646;-9.154;2024-03-17T07:56:14;22.10;;;15.33;;
4638;SDS011;2332;38.646;-9.154;2024-03-17T07:58:41;24.00;;;16.77;;
4638;SDS011;2332;38.646;-9.154;2024-03-17T08:01:07;21.60;;;15.80;;
4638;SDS011;2332;38.646;-9.154;2024-03-17T08:03:35;24.23;;;15.30;;
4638;SDS011;2332;38.646;-9.154;2024-03-17T08:06:01;21.77;;;15.43;;
4638;SDS011;2332;38.646;-9.154;2024-03-17T08:08:27;23.67;;;15.27;;
4638;SDS011;2332;38.646;-9.154;2024-03-17T08:10:52;24.13;;;15.67;;
4638;SDS011;2332;38.646;-9.154;2024-03-17T08:13:18;18.80;;;15.40;;
4638;SDS011;2332;38.646;-9.154;2024-03-17T08:15:44;22.07;;;16.00;;
4638;SDS011;2332;38.646;-9.154;2024-03-17T08:18:10;21.83;;;14.57;;
4638;SDS011;2332;38.646;-9.154;2024-03-17T08:20:37;21.60;;;15.00;;
4638;SDS011;2332;38.646;-9.154;2024-03-17T08:23:03;22.73;;;14.70;;
4638;SDS011;2332;38.646;-9.154;2024-03-17T08:25:28;20.60;;;14.50;;
4638;SDS011;2332;38.646;-9.154;2024-03-17T08:27:54;28.50;;;15.77;;
4638;SDS011;2332;38.646;-9.154;2024-03-17T08:30:19;22.33;;;14.57;;
4638;SDS011;2332;38.646;-9.154;2024-03-17T08:32:44;17.30;;;13.80;;
4638;SDS011;2332;38.646;-9.154;2024-03-17T08:35:10;17.90;;;13.80;;
4638;SDS011;2332;38.646;-9.154;2024-03-17T08:37:38;21.40;;;13.83;;
4638;SDS011;2332;38.646;-9.154;2024-03-17T08:40:04;17.60;;;13.50;;
4638;SDS011;2332;38.646;-9.154;2024-03-17T08:42:31;19.67;;;13.60;;
4638;SDS011;2332;38.646;-9.154;2024-03-17T08:44:57;18.63;;;13.63;;
4638;SDS011;2332;38.646;-9.154;2024-03-17T08:47:22;18.73;;;13.97;;
4638;SDS011;2332;38.646;-9.154;2024-03-17T08:49:50;17.40;;;13.70;;
4638;SDS011;2332;38.646;-9.154;2024-03-17T08:52:15;21.43;;;14.07;;
4638;SDS011;2332;38.646;-9.154;2024-03-17T08:54:40;15.77;;;12.80;;
4638;SDS011;2332;38.646;-9.154;2024-03-17T08:57:06;17.63;;;12.30;;
4638;SDS011;2332;38.646;-9.154;2024-03-17T08:59:31;13.33;;;11.93;;
4638;SDS011;2332;38.646;-9.154;2024-03-17T09:01:57;14.63;;;12.40;;
4638;SDS011;2332;38.646;-9.154;2024-03-17T09:04:22;15.80;;;11.80;;
4638;SDS011;2332;38.646;-9.154;2024-03-17T09:06:47;23.40;;;13.07;;
4638;SDS011;2332;38.646;-9.154;2024-03-17T09:09:13;16.73;;;12.10;;
4638;SDS011;2332;38.646;-9.154;2024-03-17T09:11:39;17.63;;;12.97;;
4638;SDS011;2332;38.646;-9.154;2024-03-17T09:14:04;15.47;;;12.10;;
4638;SDS011;2332;38.646;-9.154;2024-03-17T09:16:30;19.70;;;12.47;;
4638;SDS011;2332;38.646;-9.154;2024-03-17T09:18:57;17.47;;;11.67;;
4638;SDS011;2332;38.646;-9.154;2024-03-17T09:21:22;14.77;;;11.40;;
4638;SDS011;2332;38.646;-9.154;2024-03-17T09:23:48;17.73;;;12.00;;
4638;SDS011;2332;38.646;-9.154;2024-03-17T09:26:13;20.50;;;13.13;;
4638;SDS011;2332;38.646;-9.154;2024-03-17T09:28:42;15.20;;;12.53;;
4638;SDS011;2332;38.646;-9.154;2024-03-17T09:31:09;17.37;;;11.60;;
4638;SDS011;2332;38.646;-9.154;2024-03-17T09:33:36;18.03;;;11.50;;
4638;SDS011;2332;38.646;-9.154;2024-03-17T09:36:03;16.03;;;11.17;;
4638;SDS011;2332;38.646;-9.154;2024-03-17T09:38:29;14.47;;;10.67;;
4638;SDS011;2332;38.646;-9.154;2024-03-17T09:40:56;13.07;;;10.80;;
4638;SDS011;2332;38.646;-9.154;2024-03-17T09:43:26;14.00;;;10.50;;
4638;SDS011;2332;38.646;-9.154;2024-03-17T09:45:52;11.77;;;9.87;;
4638;SDS011;2332;38.646;-9.154;2024-03-17T09:48:20;13.63;;;10.13;;
4638;SDS011;2332;38.646;-9.154;2024-03-17T09:50:48;12.17;;;9.13;;
4638;SDS011;2332;38.646;-9.154;2024-03-17T09:53:16;12.10;;;9.80;;
4638;SDS011;2332;38.646;-9.154;2024-03-17T09:55:43;12.40;;;9.57;;
4638;SDS011;2332;38.646;-9.154;2024-03-17T09:58:15;12.30;;;9.37;;
4638;SDS011;2332;38.646;-9.154;2024-03-17T10:00:40;11.80;;;8.13;;
4638;SDS011;2332;38.646;-9.154;2024-03-17T10:03:06;11.87;;;9.13;;
4638;SDS011;2332;38.646;-9.154;2024-03-17T10:05:31;12.60;;;10.17;;
4638;SDS011;2332;38.646;-9.154;2024-03-17T10:07:57;14.40;;;11.13;;
4638;SDS011;2332;38.646;-9.154;2024-03-17T10:10:23;16.33;;;11.20;;
4638;SDS011;2332;38.646;-9.154;2024-03-17T10:12:49;13.57;;;10.10;;
4638;SDS011;2332;38.646;-9.154;2024-03-17T10:15:16;9.50;;;8.50;;
4638;SDS011;2332;38.646;-9.154;2024-03-17T10:17:41;9.43;;;7.90;;
4638;SDS011;2332;38.646;-9.154;2024-03-17T10:20:14;12.50;;;8.90;;
4638;SDS011;2332;38.646;-9.154;2024-03-17T10:23:25;13.20;;;9.77;;
4638;SDS011;2332;38.646;-9.154;2024-03-17T10:25:30;14.43;;;8.70;;
4638;SDS011;2332;38.646;-9.154;2024-03-17T10:27:56;8.03;;;7.23;;
4638;SDS011;2332;38.646;-9.154;2024-03-17T10:30:22;8.50;;;7.27;;
4638;SDS011;2332;38.646;-9.154;2024-03-17T10:32:56;11.00;;;7.53;;
4638;SDS011;2332;38.646;-9.154;2024-03-17T10:35:35;8.77;;;7.10;;
4638;SDS011;2332;38.646;-9.154;2024-03-17T10:38:04;10.97;;;6.93;;
4638;SDS011;2332;38.646;-9.154;2024-03-17T10:40:30;12.63;;;7.57;;
4638;SDS011;2332;38.646;-9.154;2024-03-17T10:42:56;8.57;;;7.47;;
4638;SDS011;2332;38.646;-9.154;2024-03-17T10:45:22;9.07;;;8.00;;
4638;SDS011;2332;38.646;-9.154;2024-03-17T10:47:48;8.33;;;7.20;;
4638;SDS011;2332;38.646;-9.154;2024-03-17T10:50:21;8.93;;;6.80;;
4638;SDS011;2332;38.646;-9.154;2024-03-17T10:52:48;7.33;;;6.60;;
4638;SDS011;2332;38.646;-9.154;2024-03-17T10:55:23;10.33;;;8.00;;
4638;SDS011;2332;38.646;-9.154;2024-03-17T10:57:50;7.80;;;7.13;;
4638;SDS011;2332;38.646;-9.154;2024-03-17T11:00:24;9.20;;;7.57;;
4638;SDS011;2332;38.646;-9.154;2024-03-17T11:02:54;11.10;;;8.50;;
4638;SDS011;2332;38.646;-9.154;2024-03-17T11:05:21;9.83;;;8.83;;
4638;SDS011;2332;38.646;-9.154;2024-03-17T11:07:48;14.77;;;10.43;;
4638;SDS011;2332;38.646;-9.154;2024-03-17T11:10:21;16.20;;;11.77;;
4638;SDS011;2332;38.646;-9.154;2024-03-17T11:17:44;12.33;;;10.57;;
4638;SDS011;2332;38.646;-9.154;2024-03-17T11:20:23;16.20;;;11.23;;
4638;SDS011;2332;38.646;-9.154;2024-03-17T11:22:49;10.90;;;9.40;;
4638;SDS011;2332;38.646;-9.154;2024-03-17T11:27:59;10.40;;;8.50;;
4638;SDS011;2332;38.646;-9.154;2024-03-17T11:35:49;16.10;;;7.80;;
4638;SDS011;2332;38.646;-9.154;2024-03-17T11:43:42;8.20;;;7.40;;
4638;SDS011;2332;38.646;-9.154;2024-03-17T11:46:10;9.07;;;8.17;;
4638;SDS011;2332;38.646;-9.154;2024-03-17T11:48:36;14.57;;;8.43;;
4638;SDS011;2332;38.646;-9.154;2024-03-17T11:51:02;8.70;;;7.20;;
4638;SDS011;2332;38.646;-9.154;2024-03-17T11:53:29;9.87;;;7.37;;
4638;SDS011;2332;38.646;-9.154;2024-03-17T11:55:54;9.30;;;8.33;;
4638;SDS011;2332;38.646;-9.154;2024-03-17T11:58:20;22.00;;;15.90;;
4638;SDS011;2332;38.646;-9.154;2024-03-17T12:00:51;10.20;;;6.90;;
4638;SDS011;2332;38.646;-9.154;2024-03-17T12:03:16;9.30;;;7.27;;
4638;SDS011;2332;38.646;-9.154;2024-03-17T12:05:42;8.30;;;6.50;;
4638;SDS011;2332;38.646;-9.154;2024-03-17T12:08:18;7.30;;;6.53;;
4638;SDS011;2332;38.646;-9.154;2024-03-17T12:10:48;9.30;;;6.60;;
4638;SDS011;2332;38.646;-9.154;2024-03-17T12:13:13;7.17;;;6.47;;
4638;SDS011;2332;38.646;-9.154;2024-03-17T12:15:39;7.07;;;5.80;;
4638;SDS011;2332;38.646;-9.154;2024-03-17T12:18:07;6.53;;;5.27;;
4638;SDS011;2332;38.646;-9.154;2024-03-17T12:20:46;8.50;;;5.73;;
4638;SDS011;2332;38.646;-9.154;2024-03-17T12:23:13;9.10;;;6.43;;
4638;SDS011;2332;38.646;-9.154;2024-03-17T12:25:42;9.43;;;6.40;;
4638;SDS011;2332;38.646;-9.154;2024-03-17T12:28:15;6.00;;;5.40;;
4638;SDS011;2332;38.646;-9.154;2024-03-17T12:30:41;18.43;;;5.97;;
4638;SDS011;2332;38.646;-9.154;2024-03-17T12:33:08;7.23;;;6.00;;
4638;SDS011;2332;38.646;-9.154;2024-03-17T12:35:36;8.90;;;6.50;;
4638;SDS011;2332;38.646;-9.154;2024-03-17T12:38:01;9.10;;;7.13;;
4638;SDS011;2332;38.646;-9.154;2024-03-17T12:40:26;13.90;;;10.60;;
4638;SDS011;2332;38.646;-9.154;2024-03-17T12:42:54;9.40;;;8.60;;
4638;SDS011;2332;38.646;-9.154;2024-03-17T12:45:23;8.93;;;8.03;;
4638;SDS011;2332;38.646;-9.154;2024-03-17T12:47:49;9.20;;;7.47;;
4638;SDS011;2332;38.646;-9.154;2024-03-17T12:50:14;7.50;;;6.80;;
4638;SDS011;2332;38.646;-9.154;2024-03-17T12:52:40;9.10;;;8.20;;
4638;SDS011;2332;38.646;-9.154;2024-03-17T12:55:09;7.80;;;7.20;;
4638;SDS011;2332;38.646;-9.154;2024-03-17T13:00:37;10.93;;;8.80;;
4638;SDS011;2332;38.646;-9.154;2024-03-17T13:03:06;9.23;;;6.10;;
4638;SDS011;2332;38.646;-9.154;2024-03-17T13:05:32;6.03;;;5.53;;
4638;SDS011;2332;38.646;-9.154;2024-03-17T13:07:57;6.80;;;6.10;;
4638;SDS011;2332;38.646;-9.154;2024-03-17T13:10:24;8.40;;;6.43;;
4638;SDS011;2332;38.646;-9.154;2024-03-17T13:12:59;7.50;;;6.80;;
4638;SDS011;2332;38.646;-9.154;2024-03-17T13:15:28;11.27;;;6.30;;
4638;SDS011;2332;38.646;-9.154;2024-03-17T13:17:57;12.87;;;10.53;;
4638;SDS011;2332;38.646;-9.154;2024-03-17T13:20:23;7.40;;;6.00;;
4638;SDS011;2332;38.646;-9.154;2024-03-17T13:22:48;7.23;;;6.07;;
4638;SDS011;2332;38.646;-9.154;2024-03-17T13:25:14;6.10;;;5.40;;
4638;SDS011;2332;38.646;-9.154;2024-03-17T13:27:41;6.03;;;5.43;;
4638;SDS011;2332;38.646;-9.154;2024-03-17T13:30:07;8.53;;;7.07;;
4638;SDS011;2332;38.646;-9.154;2024-03-17T13:32:34;6.07;;;5.20;;
4638;SDS011;2332;38.646;-9.154;2024-03-17T13:34:59;5.40;;;5.00;;
4638;SDS011;2332;38.646;-9.154;2024-03-17T13:37:25;5.73;;;5.23;;
4638;SDS011;2332;38.646;-9.154;2024-03-17T13:39:50;6.53;;;5.90;;
4638;SDS011;2332;38.646;-9.154;2024-03-17T13:42:15;8.10;;;6.10;;
4638;SDS011;2332;38.646;-9.154;2024-03-17T13:44:41;5.93;;;5.53;;
4638;SDS011;2332;38.646;-9.154;2024-03-17T13:47:06;4.80;;;4.50;;
4638;SDS011;2332;38.646;-9.154;2024-03-17T13:49:33;8.33;;;5.13;;
4638;SDS011;2332;38.646;-9.154;2024-03-17T13:51:58;5.30;;;5.00;;
4638;SDS011;2332;38.646;-9.154;2024-03-17T13:54:24;6.63;;;5.77;;
4638;SDS011;2332;38.646;-9.154;2024-03-17T13:56:49;5.90;;;4.90;;
4638;SDS011;2332;38.646;-9.154;2024-03-17T13:59:18;5.80;;;5.23;;
4638;SDS011;2332;38.646;-9.154;2024-03-17T14:01:43;5.90;;;5.33;;
4638;SDS011;2332;38.646;-9.154;2024-03-17T14:04:12;8.63;;;5.37;;
4638;SDS011;2332;38.646;-9.154;2024-03-17T14:06:37;4.80;;;4.40;;
4638;SDS011;2332;38.646;-9.154;2024-03-17T14:09:03;4.50;;;4.20;;
4638;SDS011;2332;38.646;-9.154;2024-03-17T14:11:29;5.10;;;4.50;;
4638;SDS011;2332;38.646;-9.154;2024-03-17T14:13:54;4.77;;;4.30;;
4638;SDS011;2332;38.646;-9.154;2024-03-17T14:16:19;4.60;;;4.30;;
4638;SDS011;2332;38.646;-9.154;2024-03-17T14:18:45;4.80;;;4.50;;
4638;SDS011;2332;38.646;-9.154;2024-03-17T14:21:10;4.30;;;4.00;;
4638;SDS011;2332;38.646;-9.154;2024-03-17T14:23:35;4.50;;;4.10;;
4638;SDS011;2332;38.646;-9.154;2024-03-17T14:26:02;6.67;;;4.40;;
4638;SDS011;2332;38.646;-9.154;2024-03-17T14:28:29;4.93;;;4.53;;
4638;SDS011;2332;38.646;-9.154;2024-03-17T14:30:56;4.73;;;4.30;;
4638;SDS011;2332;38.646;-9.154;2024-03-17T14:33:22;6.00;;;4.00;;
4638;SDS011;2332;38.646;-9.154;2024-03-17T14:35:55;4.30;;;3.90;;
4638;SDS011;2332;38.646;-9.154;2024-03-17T14:38:21;4.57;;;3.80;;
4638;SDS011;2332;38.646;-9.154;2024-03-17T14:40:46;6.00;;;5.50;;
4638;SDS011;2332;38.646;-9.154;2024-03-17T14:43:11;4.30;;;4.00;;
4638;SDS011;2332;38.646;-9.154;2024-03-17T14:45:37;3.90;;;3.70;;
4638;SDS011;2332;38.646;-9.154;2024-03-17T14:48:03;4.10;;;3.80;;
4638;SDS011;2332;38.646;-9.154;2024-03-17T14:50:29;3.97;;;3.67;;
4638;SDS011;2332;38.646;-9.154;2024-03-17T14:52:54;4.13;;;3.47;;
4638;SDS011;2332;38.646;-9.154;2024-03-17T14:55:19;3.80;;;3.40;;
4638;SDS011;2332;38.646;-9.154;2024-03-17T14:57:46;4.10;;;3.37;;